createdAt,value
2019-04-13T00:02:06.941Z,10.82
2019-04-13T00:04:46.848Z,10.90
2019-04-13T00:07:15.584Z,11.33
2019-04-13T00:09:44.322Z,11.88
2019-04-13T00:12:32.738Z,10.28
2019-04-13T00:15:00.526Z,9.30
2019-04-13T00:17:29.061Z,10.93
2019-04-13T00:19:57.443Z,10.60
2019-04-13T00:22:25.598Z,10.05
2019-04-13T00:24:53.986Z,10.03
2019-04-13T00:27:22.209Z,10.30
2019-04-13T00:29:50.860Z,10.03
2019-04-13T00:32:19.266Z,10.48
2019-04-13T00:34:47.403Z,10.40
2019-04-13T00:37:16.379Z,9.43
2019-04-13T00:39:45.276Z,12.05
2019-04-13T00:42:13.806Z,10.03
2019-04-13T00:44:42.228Z,9.05
2019-04-13T00:47:10.619Z,10.28
2019-04-13T00:49:39.300Z,10.35
2019-04-13T00:52:07.279Z,11.38
2019-04-13T00:54:35.268Z,9.60
2019-04-13T00:57:03.244Z,10.88
2019-04-13T00:59:31.137Z,10.53
2019-04-13T01:01:59.038Z,11.28
2019-04-13T01:04:26.937Z,11.18
2019-04-13T01:06:55.093Z,10.25
2019-04-13T01:09:23.217Z,10.88
2019-04-13T01:11:51.167Z,11.28
2019-04-13T01:14:19.139Z,9.53
2019-04-13T01:16:47.045Z,10.75
2019-04-13T01:19:15.400Z,10.05
2019-04-13T01:21:43.558Z,7.87
2019-04-13T01:24:12.210Z,10.20
2019-04-13T01:26:40.335Z,10.32
2019-04-13T01:29:08.823Z,9.93
2019-04-13T01:31:37.229Z,8.68
2019-04-13T01:34:05.247Z,9.28
2019-04-13T01:36:34.035Z,9.70
2019-04-13T01:39:04.434Z,10.48
2019-04-13T01:41:32.819Z,9.73
2019-04-13T01:44:01.681Z,9.08
2019-04-13T01:46:29.838Z,10.35
2019-04-13T01:48:58.237Z,9.98
2019-04-13T01:51:26.501Z,8.78
2019-04-13T01:53:55.483Z,9.90
2019-04-13T01:56:23.929Z,10.23
2019-04-13T01:58:52.575Z,7.87
2019-04-13T02:01:43.203Z,8.33
2019-04-13T02:04:35.414Z,9.85
2019-04-13T02:07:22.367Z,10.30
2019-04-13T02:10:03.576Z,9.00
2019-04-13T02:12:30.961Z,9.65
2019-04-13T02:14:59.695Z,7.55
2019-04-13T02:17:27.933Z,9.98
2019-04-13T02:19:56.413Z,10.28
2019-04-13T02:22:25.144Z,8.95
2019-04-13T02:24:53.899Z,8.10
2019-04-13T02:27:22.582Z,8.48
2019-04-13T02:29:50.709Z,10.53
2019-04-13T02:32:18.950Z,9.18
2019-04-13T02:34:47.204Z,9.73
2019-04-13T02:37:15.683Z,8.65
2019-04-13T02:39:44.055Z,9.48
2019-04-13T02:42:12.672Z,8.80
2019-04-13T02:44:41.207Z,9.15
2019-04-13T02:47:09.500Z,8.95
2019-04-13T02:49:37.388Z,8.93
2019-04-13T02:52:06.033Z,9.33
2019-04-13T02:54:34.253Z,8.53
2019-04-13T02:57:02.869Z,9.53
2019-04-13T02:59:31.195Z,9.10
2019-04-13T03:01:59.670Z,9.83
2019-04-13T03:04:28.319Z,9.83
2019-04-13T03:06:57.112Z,9.80
2019-04-13T03:09:25.745Z,9.28
2019-04-13T03:11:54.311Z,11.03
2019-04-13T03:14:22.641Z,9.53
2019-04-13T03:17:09.795Z,10.00
2019-04-13T03:19:41.405Z,10.82
2019-04-13T03:22:10.011Z,9.75
2019-04-13T03:24:38.413Z,10.32
2019-04-13T03:27:06.586Z,10.63
2019-04-13T03:29:34.733Z,10.10
2019-04-13T03:32:02.716Z,9.83
2019-04-13T03:34:31.297Z,9.80
2019-04-13T03:36:59.793Z,10.80
2019-04-13T03:39:28.311Z,9.58
2019-04-13T03:41:56.971Z,10.98
2019-04-13T03:44:25.454Z,10.60
2019-04-13T03:46:53.586Z,12.00
2019-04-13T03:49:21.834Z,10.50
2019-04-13T03:51:50.216Z,11.03
2019-04-13T03:54:18.113Z,11.35
2019-04-13T03:56:46.473Z,11.20
2019-04-13T03:59:14.383Z,12.05
2019-04-13T04:01:45.459Z,11.97
2019-04-13T04:04:13.049Z,12.10
2019-04-13T04:06:41.762Z,12.07
2019-04-13T04:09:10.539Z,11.73
2019-04-13T04:11:38.752Z,12.00
2019-04-13T04:14:07.399Z,12.05
2019-04-13T04:16:35.764Z,11.20
2019-04-13T04:19:04.240Z,9.83
2019-04-13T04:21:32.950Z,11.05
2019-04-13T04:24:01.350Z,11.55
2019-04-13T04:26:29.226Z,11.83
2019-04-13T04:28:57.470Z,11.95
2019-04-13T04:31:26.234Z,11.63
2019-04-13T04:33:54.626Z,12.45
2019-04-13T04:36:24.233Z,12.98
2019-04-13T04:38:52.709Z,11.18
2019-04-13T04:41:20.852Z,14.10
2019-04-13T04:43:49.264Z,13.13
2019-04-13T04:46:17.906Z,13.80
2019-04-13T04:48:46.509Z,13.68
2019-04-13T04:51:15.201Z,14.10
2019-04-13T04:53:43.837Z,14.33
2019-04-13T04:56:12.216Z,15.18
2019-04-13T04:58:40.450Z,14.20
2019-04-13T05:01:09.143Z,13.32
2019-04-13T05:03:37.745Z,13.32
2019-04-13T05:06:06.112Z,14.78
2019-04-13T05:08:34.249Z,14.83
2019-04-13T05:11:02.787Z,14.98
2019-04-13T05:13:31.617Z,14.70
2019-04-13T05:15:59.525Z,13.70
2019-04-13T05:18:28.189Z,13.43
2019-04-13T05:20:56.573Z,15.10
2019-04-13T05:23:25.586Z,14.25
2019-04-13T05:25:54.224Z,13.95
2019-04-13T05:28:22.875Z,14.18
2019-04-13T05:30:51.085Z,12.28
2019-04-13T05:33:19.704Z,12.55
2019-04-13T05:35:47.851Z,13.15
2019-04-13T05:38:17.110Z,14.60
2019-04-13T05:40:45.380Z,15.28
2019-04-13T05:43:13.859Z,14.25
2019-04-13T05:45:42.238Z,14.20
2019-04-13T05:48:10.623Z,12.98
2019-04-13T05:50:39.246Z,14.20
2019-04-13T05:53:07.870Z,14.28
2019-04-13T05:55:36.283Z,15.90
2019-04-13T05:58:04.843Z,14.33
2019-04-13T06:00:33.434Z,12.95
2019-04-13T06:03:01.549Z,13.32
2019-04-13T06:05:30.421Z,12.85
2019-04-13T06:07:58.618Z,13.40
2019-04-13T06:10:26.900Z,11.73
2019-04-13T06:12:55.621Z,11.60
2019-04-13T06:15:23.874Z,12.63
2019-04-13T06:17:53.010Z,11.53
2019-04-13T06:20:21.140Z,12.33
2019-04-13T06:22:52.114Z,11.20
2019-04-13T06:25:19.881Z,11.10
2019-04-13T06:27:48.503Z,10.68
2019-04-13T06:30:33.944Z,13.50
2019-04-13T06:33:08.149Z,11.95
2019-04-13T06:35:36.525Z,12.93
2019-04-13T06:38:05.023Z,11.57
2019-04-13T06:40:33.490Z,11.43
2019-04-13T06:43:01.656Z,11.70
2019-04-13T06:45:30.141Z,11.53
2019-04-13T06:48:00.478Z,11.10
2019-04-13T06:50:28.291Z,12.75
2019-04-13T06:52:56.433Z,13.30
2019-04-13T06:55:24.565Z,12.30
2019-04-13T06:57:53.497Z,12.70
2019-04-13T07:00:21.713Z,13.32
2019-04-13T07:02:49.861Z,13.72
2019-04-13T07:05:18.347Z,16.30
2019-04-13T07:08:02.919Z,16.42
2019-04-13T07:10:50.043Z,18.17
2019-04-13T07:13:27.097Z,16.55
2019-04-13T07:16:00.112Z,15.55
2019-04-13T07:18:28.252Z,13.22
2019-04-13T07:20:56.374Z,13.95
2019-04-13T07:23:25.389Z,14.23
2019-04-13T07:25:54.490Z,14.13
2019-04-13T07:28:22.647Z,14.03
2019-04-13T07:30:51.276Z,12.58
2019-04-13T07:33:20.283Z,12.15
2019-04-13T07:35:48.455Z,12.60
2019-04-13T07:38:17.340Z,14.95
2019-04-13T07:40:46.300Z,14.78
2019-04-13T07:43:15.421Z,17.12
2019-04-13T07:46:17.950Z,15.08
2019-04-13T07:48:56.828Z,16.42
2019-04-13T07:51:44.647Z,20.43
2019-04-13T07:54:13.507Z,21.90
2019-04-13T07:56:41.867Z,19.90
2019-04-13T07:59:11.078Z,14.98
2019-04-13T08:01:39.789Z,14.93
2019-04-13T08:04:08.226Z,13.90
2019-04-13T08:06:37.075Z,13.22
2019-04-13T08:09:06.394Z,13.22
2019-04-13T08:11:35.014Z,11.03
2019-04-13T08:14:08.571Z,11.73
2019-04-13T08:16:37.487Z,11.95
2019-04-13T08:19:13.210Z,12.35
2019-04-13T08:21:42.243Z,12.53
2019-04-13T08:24:10.371Z,11.93
2019-04-13T08:26:38.977Z,12.47
2019-04-13T08:29:07.478Z,11.88
2019-04-13T08:31:36.165Z,12.58
2019-04-13T08:34:04.321Z,11.38
2019-04-13T08:36:32.212Z,13.28
2019-04-13T08:39:00.081Z,12.78
2019-04-13T08:41:28.241Z,13.35
2019-04-13T08:43:56.254Z,12.15
2019-04-13T08:46:24.146Z,12.47
2019-04-13T08:48:52.814Z,11.93
2019-04-13T08:51:21.195Z,13.70
2019-04-13T08:53:49.319Z,11.53
2019-04-13T08:56:17.297Z,12.07
2019-04-13T08:58:45.383Z,11.48
2019-04-13T09:01:15.702Z,10.23
2019-04-13T09:03:43.815Z,10.23
2019-04-13T09:06:16.211Z,10.35
2019-04-13T09:08:42.098Z,10.28
2019-04-13T09:11:10.303Z,10.00
2019-04-13T09:13:38.202Z,10.32
2019-04-13T09:16:06.515Z,9.80
2019-04-13T09:19:04.070Z,11.12
2019-04-13T09:21:57.842Z,10.30
2019-04-13T09:24:24.757Z,10.55
2019-04-13T09:26:51.895Z,10.75
2019-04-13T09:29:18.865Z,10.48
2019-04-13T09:31:45.983Z,9.85
2019-04-13T09:34:28.320Z,11.75
2019-04-13T09:36:42.026Z,10.65
2019-04-13T09:39:09.245Z,9.85
2019-04-13T09:41:37.192Z,10.10
2019-04-13T09:44:11.140Z,9.40
2019-04-13T09:46:38.325Z,11.20
2019-04-13T09:49:05.210Z,11.28
2019-04-13T09:51:32.117Z,9.10
2019-04-13T09:53:59.127Z,10.58
2019-04-13T09:56:36.846Z,10.13
2019-04-13T09:58:54.967Z,10.25
2019-04-13T10:01:22.862Z,10.25
2019-04-13T10:03:50.767Z,9.70
2019-04-13T10:06:18.705Z,9.77
2019-04-13T10:08:55.792Z,11.30
2019-04-13T10:11:21.113Z,10.10
2019-04-13T10:13:59.965Z,10.30
2019-04-13T10:16:42.994Z,11.10
2019-04-13T10:19:11.383Z,9.03
2019-04-13T10:21:39.582Z,9.83
2019-04-13T10:24:07.471Z,10.18
2019-04-13T10:26:35.417Z,9.23
2019-04-13T10:29:03.319Z,9.73
2019-04-13T10:31:31.208Z,9.88
2019-04-13T10:33:59.925Z,9.53
2019-04-13T10:36:27.885Z,11.35
2019-04-13T10:39:07.718Z,10.77
2019-04-13T10:41:26.091Z,10.10
2019-04-13T10:43:54.088Z,10.60
2019-04-13T10:46:47.482Z,11.33
2019-04-13T10:49:35.280Z,9.00
2019-04-13T10:52:13.510Z,9.60
2019-04-13T10:54:41.900Z,8.47
2019-04-13T10:57:10.397Z,11.00
2019-04-13T10:59:38.623Z,9.07
2019-04-13T11:02:07.326Z,10.93
2019-04-13T11:04:35.710Z,9.80
2019-04-13T11:07:04.069Z,9.90
2019-04-13T11:09:32.465Z,11.43
2019-04-13T11:12:01.526Z,10.10
2019-04-13T11:14:29.658Z,9.37
2019-04-13T11:16:59.121Z,11.07
2019-04-13T11:19:27.637Z,11.03
2019-04-13T11:21:55.643Z,10.43
2019-04-13T11:24:23.531Z,12.60
2019-04-13T11:26:51.815Z,11.20
2019-04-13T11:29:20.636Z,10.48
2019-04-13T11:31:49.131Z,11.03
2019-04-13T11:34:17.525Z,10.43
2019-04-13T11:36:46.054Z,9.40
2019-04-13T11:39:14.255Z,10.78
2019-04-13T11:42:08.229Z,9.20
2019-04-13T11:44:47.951Z,9.03
2019-04-13T11:47:22.508Z,9.75
2019-04-13T11:49:50.729Z,9.10
2019-04-13T11:52:19.479Z,8.93
2019-04-13T11:54:48.113Z,9.00
2019-04-13T11:57:17.237Z,9.15
2019-04-13T11:59:45.621Z,8.28
2019-04-13T12:02:22.244Z,7.78
2019-04-13T12:05:17.553Z,8.43
2019-04-13T12:08:11.204Z,7.85
2019-04-13T12:10:58.358Z,8.28
2019-04-13T12:13:44.449Z,8.15
2019-04-13T12:16:29.631Z,8.30
2019-04-13T12:19:23.051Z,8.43
2019-04-13T12:21:56.741Z,7.62
2019-04-13T12:24:29.251Z,5.80
2019-04-13T12:26:57.801Z,6.50
2019-04-13T12:29:26.513Z,6.90
2019-04-13T12:31:55.261Z,8.90
2019-04-13T12:34:23.950Z,5.87
2019-04-13T12:36:52.748Z,6.65
2019-04-13T12:39:21.466Z,7.90
2019-04-13T12:41:56.322Z,7.95
2019-04-13T12:44:36.559Z,6.65
2019-04-13T12:46:54.187Z,9.05
2019-04-13T12:49:22.170Z,6.78
2019-04-13T12:51:50.167Z,7.15
2019-04-13T12:54:18.467Z,7.87
2019-04-13T12:56:46.452Z,7.25
2019-04-13T12:59:14.912Z,7.87
2019-04-13T13:01:57.881Z,7.35
2019-04-13T13:04:28.662Z,7.05
2019-04-13T13:06:56.826Z,6.95
2019-04-13T13:09:24.931Z,7.47
2019-04-13T13:11:52.916Z,6.58
2019-04-13T13:14:20.891Z,6.33
2019-04-13T13:16:48.989Z,6.80
2019-04-13T13:19:16.993Z,7.35
2019-04-13T13:21:45.317Z,6.53
2019-04-13T13:24:13.608Z,7.10
2019-04-13T13:26:49.246Z,5.90
2019-04-13T13:29:14.280Z,6.62
2019-04-13T13:31:45.711Z,6.62
2019-04-13T13:34:15.097Z,6.50
2019-04-13T13:36:43.630Z,7.33
2019-04-13T13:39:13.913Z,6.25
2019-04-13T13:41:41.501Z,5.97
2019-04-13T13:44:09.652Z,7.10
2019-04-13T13:46:37.869Z,6.30
2019-04-13T13:49:06.353Z,7.20
2019-04-13T13:51:34.995Z,6.93
2019-04-13T13:54:03.402Z,5.03
2019-04-13T13:56:31.379Z,10.20
2019-04-13T13:59:04.024Z,10.23
2019-04-13T14:01:46.985Z,10.45
2019-04-13T14:04:14.985Z,10.68
2019-04-13T14:06:42.865Z,10.30
2019-04-13T14:09:11.697Z,11.90
2019-04-13T14:11:40.392Z,10.32
2019-04-13T14:14:08.524Z,10.90
2019-04-13T14:16:37.263Z,12.80
2019-04-13T14:19:05.914Z,10.25
2019-04-13T14:21:38.098Z,11.25
2019-04-13T14:24:04.695Z,10.60
2019-04-13T14:26:33.271Z,12.85
2019-04-13T14:29:01.771Z,12.80
2019-04-13T14:31:32.942Z,13.58
2019-04-13T14:34:01.123Z,11.85
2019-04-13T14:36:29.548Z,11.60
2019-04-13T14:38:59.109Z,12.98
2019-04-13T14:41:27.989Z,12.55
2019-04-13T14:43:56.493Z,13.05
2019-04-13T14:46:25.305Z,12.98
2019-04-13T14:48:53.430Z,12.33
2019-04-13T14:51:22.229Z,11.10
2019-04-13T14:53:50.949Z,11.53
2019-04-13T14:56:19.328Z,11.93
2019-04-13T14:58:47.458Z,12.33
2019-04-13T15:01:16.109Z,13.80
2019-04-13T15:03:44.629Z,12.93
2019-04-13T15:06:14.734Z,13.35
2019-04-13T15:08:46.597Z,12.58
2019-04-13T15:11:17.277Z,12.95
2019-04-13T15:13:47.075Z,12.35
2019-04-13T15:16:21.505Z,10.98
2019-04-13T15:19:11.400Z,12.70
2019-04-13T15:21:35.106Z,12.45
2019-04-13T15:24:11.100Z,11.70
2019-04-13T15:26:39.406Z,11.18
2019-04-13T15:29:07.549Z,10.68
2019-04-13T15:31:38.346Z,12.25
2019-04-13T15:34:07.362Z,11.20
2019-04-13T15:36:35.801Z,10.88
2019-04-13T15:39:12.067Z,12.37
2019-04-13T15:41:52.846Z,11.60
2019-04-13T15:44:11.992Z,14.13
2019-04-13T15:46:41.533Z,13.80
2019-04-13T15:49:15.307Z,13.35
2019-04-13T15:51:44.666Z,14.80
2019-04-13T15:54:14.469Z,15.10
2019-04-13T15:56:44.095Z,13.20
2019-04-13T15:59:13.011Z,14.45
2019-04-13T16:01:43.066Z,14.05
2019-04-13T16:04:11.734Z,13.48
2019-04-13T16:06:40.005Z,14.78
2019-04-13T16:09:37.117Z,12.75
2019-04-13T16:12:10.175Z,13.55
2019-04-13T16:14:37.641Z,16.48
2019-04-13T16:17:10.922Z,15.93
2019-04-13T16:19:39.521Z,16.70
2019-04-13T16:22:09.174Z,17.07
2019-04-13T16:24:37.823Z,17.40
2019-04-13T16:27:05.729Z,16.37
2019-04-13T16:29:55.459Z,16.50
2019-04-13T16:32:32.403Z,16.17
2019-04-13T16:35:08.197Z,17.32
2019-04-13T16:37:44.143Z,18.07
2019-04-13T16:40:12.590Z,18.07
2019-04-13T16:42:41.081Z,18.77
2019-04-13T16:45:32.690Z,20.37
2019-04-13T16:48:09.823Z,20.02
2019-04-13T16:50:53.365Z,19.52
2019-04-13T16:53:41.250Z,19.40
2019-04-13T16:56:18.748Z,15.98
2019-04-13T16:58:59.431Z,16.70
2019-04-13T17:01:37.389Z,17.95
2019-04-13T17:04:27.962Z,17.42
2019-04-13T17:06:57.506Z,15.00
2019-04-13T17:09:31.346Z,14.87
2019-04-13T17:12:16.255Z,15.58
2019-04-13T17:14:31.264Z,14.80
2019-04-13T17:16:59.894Z,15.90
2019-04-13T17:19:44.853Z,17.05
2019-04-13T17:22:39.207Z,14.78
2019-04-13T17:25:32.885Z,17.30
2019-04-13T17:28:39.410Z,16.57
2019-04-13T17:31:20.109Z,17.87
2019-04-13T17:33:54.128Z,18.10
2019-04-13T17:36:22.711Z,17.40
2019-04-13T17:38:50.802Z,16.82
2019-04-13T17:41:31.876Z,18.62
2019-04-13T17:44:12.434Z,20.50
2019-04-13T17:47:03.694Z,18.25
2019-04-13T17:49:50.806Z,18.55
2019-04-13T17:52:44.348Z,20.00
2019-04-13T17:55:17.464Z,18.80
2019-04-13T17:57:54.656Z,19.57
2019-04-13T18:00:40.869Z,21.23
2019-04-13T18:03:47.159Z,20.05
2019-04-13T18:06:35.773Z,19.90
2019-04-13T18:09:25.059Z,19.67
2019-04-13T18:12:16.327Z,20.10
2019-04-13T18:14:54.998Z,20.92
2019-04-13T18:17:38.883Z,22.52
2019-04-13T18:20:07.215Z,22.25
2019-04-13T18:22:38.889Z,21.75
2019-04-13T18:25:05.727Z,22.42
2019-04-13T18:27:34.843Z,23.35
2019-04-13T18:30:13.923Z,21.65
2019-04-13T18:32:34.501Z,21.10
2019-04-13T18:35:02.824Z,19.62
2019-04-13T18:37:30.857Z,21.80
2019-04-13T18:39:59.474Z,23.95
2019-04-13T18:42:28.356Z,17.57
2019-04-13T18:44:57.273Z,16.10
2019-04-13T18:47:26.387Z,13.35
2019-04-13T18:49:55.314Z,13.00
2019-04-13T18:52:24.466Z,12.80
2019-04-13T18:54:53.108Z,12.25
2019-04-13T18:57:21.463Z,11.93
2019-04-13T18:59:49.470Z,14.13
2019-04-13T19:02:18.984Z,14.05
2019-04-13T19:04:50.427Z,14.80
2019-04-13T19:07:18.624Z,16.52
2019-04-13T19:09:46.891Z,15.78
2019-04-13T19:12:15.744Z,16.60
2019-04-13T19:14:44.205Z,17.20
2019-04-13T19:17:12.818Z,16.55
2019-04-13T19:19:41.197Z,17.70
2019-04-13T19:22:09.576Z,18.35
2019-04-13T19:24:38.106Z,17.40
2019-04-13T19:27:06.999Z,20.50
2019-04-13T19:29:35.542Z,19.52
2019-04-13T19:32:04.029Z,21.10
2019-04-13T19:34:32.854Z,21.05
2019-04-13T19:37:04.045Z,20.95
2019-04-13T19:39:31.209Z,21.27
2019-04-13T19:41:59.654Z,21.93
2019-04-13T19:44:28.323Z,20.43
2019-04-13T19:46:55.837Z,21.52
2019-04-13T19:49:23.737Z,18.85
2019-04-13T19:52:12.094Z,20.40
2019-04-13T19:54:39.723Z,19.98
2019-04-13T19:57:07.430Z,21.60
2019-04-13T19:59:35.153Z,21.23
2019-04-13T20:02:02.395Z,21.48
2019-04-13T20:04:29.626Z,21.68
2019-04-13T20:06:57.359Z,22.02
2019-04-13T20:09:25.101Z,21.65
2019-04-13T20:11:53.621Z,21.87
2019-04-13T20:14:24.652Z,22.10
2019-04-13T20:16:53.534Z,19.67
2019-04-13T20:19:22.382Z,24.35
2019-04-13T20:21:51.092Z,23.75
2019-04-13T20:24:19.505Z,23.85
2019-04-13T20:26:48.966Z,24.07
2019-04-13T20:29:17.112Z,25.85
2019-04-13T20:31:46.275Z,27.25
2019-04-13T20:34:16.575Z,28.73
2019-04-13T20:36:44.468Z,28.35
2019-04-13T20:39:13.503Z,26.75
2019-04-13T20:41:50.475Z,28.73
2019-04-13T20:44:14.843Z,27.82
2019-04-13T20:46:43.086Z,23.75
2019-04-13T20:49:11.349Z,26.33
2019-04-13T20:51:39.598Z,25.08
2019-04-13T20:54:07.759Z,25.12
2019-04-13T20:56:36.147Z,26.52
2019-04-13T20:59:04.400Z,24.15
2019-04-13T21:01:32.388Z,27.10
2019-04-13T21:04:00.750Z,23.42
2019-04-13T21:06:30.353Z,25.45
2019-04-13T21:08:59.131Z,27.85
2019-04-13T21:11:27.188Z,27.05
2019-04-13T21:14:05.631Z,26.42
2019-04-13T21:16:25.808Z,26.62
2019-04-13T21:18:55.745Z,28.47
2019-04-13T21:21:23.775Z,25.60
2019-04-13T21:23:51.864Z,26.93
2019-04-13T21:26:22.517Z,27.60
2019-04-13T21:28:50.029Z,26.45
2019-04-13T21:31:18.017Z,28.77
2019-04-13T21:33:45.909Z,28.92
2019-04-13T21:36:15.280Z,27.75
2019-04-13T21:38:43.790Z,29.40
2019-04-13T21:41:12.809Z,28.00
2019-04-13T21:43:41.779Z,30.02
2019-04-13T21:46:10.801Z,29.60
2019-04-13T21:48:39.906Z,29.82
2019-04-13T21:51:40.081Z,30.88
2019-04-13T21:54:14.676Z,28.57
2019-04-13T21:56:42.784Z,28.25
2019-04-13T21:59:11.042Z,27.90
2019-04-13T22:01:58.394Z,29.87
2019-04-13T22:04:28.293Z,27.90
2019-04-13T22:06:56.793Z,27.48
2019-04-13T22:09:25.992Z,29.80
2019-04-13T22:11:54.609Z,30.08
2019-04-13T22:14:35.300Z,30.43
2019-04-13T22:16:52.767Z,31.23
2019-04-13T22:19:22.131Z,29.23
2019-04-13T22:21:50.470Z,27.77
2019-04-13T22:24:18.751Z,30.12
2019-04-13T22:26:47.786Z,29.55
2019-04-13T22:29:22.211Z,27.30
2019-04-13T22:32:09.931Z,27.55
2019-04-13T22:34:42.428Z,28.00
2019-04-13T22:37:10.846Z,28.73
2019-04-13T22:39:39.916Z,27.30
2019-04-13T22:42:08.207Z,29.55
2019-04-13T22:44:45.574Z,30.55
2019-04-13T22:47:06.099Z,29.30
2019-04-13T22:49:54.573Z,30.80
2019-04-13T22:52:45.240Z,29.20
2019-04-13T22:55:20.743Z,29.37
2019-04-13T22:57:49.970Z,29.35
2019-04-13T23:00:26.211Z,29.67
2019-04-13T23:02:54.395Z,30.52
2019-04-13T23:05:24.165Z,31.65
2019-04-13T23:07:52.506Z,33.35
2019-04-13T23:10:20.571Z,33.50
2019-04-13T23:12:48.695Z,31.45
2019-04-13T23:15:24.347Z,29.77
2019-04-13T23:17:46.801Z,29.25
2019-04-13T23:20:14.883Z,30.88
2019-04-13T23:22:43.117Z,29.77
2019-04-13T23:25:11.857Z,30.88
2019-04-13T23:27:39.973Z,31.05
2019-04-13T23:30:09.358Z,31.62
2019-04-13T23:32:37.724Z,31.05
2019-04-13T23:35:06.383Z,30.57
2019-04-13T23:37:34.527Z,30.48
2019-04-13T23:40:05.140Z,30.72
2019-04-13T23:42:33.025Z,32.53
2019-04-13T23:45:10.807Z,35.35
2019-04-13T23:47:31.956Z,32.30
2019-04-13T23:50:01.569Z,35.60
2019-04-13T23:52:30.376Z,33.67
2019-04-13T23:54:58.675Z,32.35
2019-04-13T23:57:33.548Z,33.20
